createdAt,value
2022-08-30T00:02:53.842Z,21.88
2022-08-30T00:05:56.353Z,22.03
2022-08-30T00:08:58.154Z,22.13
2022-08-30T00:12:00.438Z,22.07
2022-08-30T00:15:02.299Z,22.03
2022-08-30T00:18:03.937Z,21.95
2022-08-30T00:21:06.100Z,21.92
2022-08-30T00:24:08.138Z,21.91
2022-08-30T00:27:09.589Z,21.85
2022-08-30T00:30:13.505Z,21.73
2022-08-30T00:33:15.378Z,21.68
2022-08-30T00:36:17.158Z,21.52
2022-08-30T00:39:18.565Z,21.38
2022-08-30T00:42:21.368Z,21.35
2022-08-30T00:45:27.853Z,21.28
2022-08-30T00:48:30.423Z,21.26
2022-08-30T00:51:33.323Z,21.22
2022-08-30T00:54:37.388Z,21.18
2022-08-30T00:57:39.989Z,21.11
2022-08-30T01:00:41.490Z,21.13
2022-08-30T01:03:43.885Z,20.97
2022-08-30T01:06:45.966Z,21.10
2022-08-30T01:09:47.590Z,20.94
2022-08-30T01:12:49.314Z,20.88
2022-08-30T01:15:51.531Z,20.72
2022-08-30T01:18:57.473Z,20.67
2022-08-30T01:22:05.492Z,20.72
2022-08-30T01:25:09.055Z,20.76
2022-08-30T01:28:15.797Z,20.80
2022-08-30T01:31:17.771Z,20.67
2022-08-30T01:34:19.459Z,20.55
2022-08-30T01:37:32.661Z,20.59
2022-08-30T01:40:34.126Z,20.50
2022-08-30T01:43:35.598Z,20.37
2022-08-30T01:46:45.577Z,20.34
2022-08-30T01:49:47.939Z,20.42
2022-08-30T01:52:49.470Z,20.44
2022-08-30T01:55:51.097Z,20.49
2022-08-30T01:58:53.235Z,20.47
2022-08-30T02:01:54.896Z,20.36
2022-08-30T02:04:56.936Z,20.16
2022-08-30T02:08:00.437Z,20.26
2022-08-30T02:11:02.521Z,20.28
2022-08-30T02:14:04.653Z,20.32
2022-08-30T02:17:08.606Z,20.33
2022-08-30T02:20:10.780Z,20.26
2022-08-30T02:23:12.246Z,20.19
2022-08-30T02:26:14.559Z,20.05
2022-08-30T02:29:16.012Z,20.04
2022-08-30T02:32:17.456Z,19.90
2022-08-30T02:35:18.969Z,19.52
2022-08-30T02:38:20.396Z,19.30
2022-08-30T02:41:23.508Z,19.22
2022-08-30T02:44:24.937Z,19.12
2022-08-30T02:47:26.528Z,19.28
2022-08-30T02:50:28.183Z,19.12
2022-08-30T02:53:29.742Z,19.06
2022-08-30T02:56:31.189Z,19.12
2022-08-30T02:59:33.480Z,19.22
2022-08-30T03:02:35.076Z,19.32
2022-08-30T03:05:39.784Z,19.34
2022-08-30T03:08:41.675Z,19.46
2022-08-30T03:11:44.765Z,19.48
2022-08-30T03:14:46.274Z,19.37
2022-08-30T03:17:47.705Z,19.33
2022-08-30T03:20:54.542Z,19.39
2022-08-30T03:23:56.376Z,19.33
2022-08-30T03:26:57.797Z,19.32
2022-08-30T03:29:59.285Z,19.37
2022-08-30T03:33:01.626Z,19.42
2022-08-30T03:36:04.013Z,19.44
2022-08-30T03:39:06.556Z,19.40
2022-08-30T03:42:11.229Z,19.28
2022-08-30T03:45:14.619Z,19.30
2022-08-30T03:48:16.089Z,19.31
2022-08-30T03:51:18.294Z,19.27
2022-08-30T03:54:19.719Z,19.40
2022-08-30T03:57:24.386Z,19.47
2022-08-30T04:00:26.201Z,19.35
2022-08-30T04:03:27.676Z,19.26
2022-08-30T04:06:29.170Z,19.23
2022-08-30T04:09:31.326Z,19.28
2022-08-30T04:12:32.826Z,19.33
2022-08-30T04:15:34.274Z,19.23
2022-08-30T04:18:36.200Z,19.22
2022-08-30T04:21:42.900Z,19.16
2022-08-30T04:24:44.863Z,19.06
2022-08-30T04:27:46.366Z,18.95
2022-08-30T04:30:47.906Z,18.93
2022-08-30T04:33:49.638Z,18.91
2022-08-30T04:36:51.241Z,18.78
2022-08-30T04:39:57.484Z,18.69
2022-08-30T04:42:59.261Z,18.63
2022-08-30T04:46:07.030Z,18.57
2022-08-30T04:49:08.545Z,18.51
2022-08-30T04:52:10.916Z,18.35
2022-08-30T04:55:16.800Z,18.02
2022-08-30T04:58:21.400Z,18.01
2022-08-30T05:01:26.688Z,18.15
2022-08-30T05:04:28.864Z,18.25
2022-08-30T05:07:31.632Z,18.26
2022-08-30T05:10:34.233Z,18.18
2022-08-30T05:13:37.076Z,18.17
2022-08-30T05:16:39.285Z,18.19
2022-08-30T05:19:40.832Z,18.24
2022-08-30T05:22:52.281Z,18.26
2022-08-30T05:25:55.510Z,18.15
2022-08-30T05:28:57.653Z,18.03
2022-08-30T05:31:59.448Z,18.20
2022-08-30T05:35:00.950Z,18.29
2022-08-30T05:38:02.362Z,18.45
2022-08-30T05:41:08.396Z,18.49
2022-08-30T05:44:12.455Z,18.59
2022-08-30T05:47:13.875Z,18.70
2022-08-30T05:50:15.539Z,18.86
2022-08-30T05:53:16.945Z,18.83
2022-08-30T05:56:21.752Z,18.90
2022-08-30T05:59:26.631Z,18.97
2022-08-30T06:02:28.285Z,19.09
2022-08-30T06:05:29.845Z,19.22
2022-08-30T06:08:34.998Z,19.24
2022-08-30T06:11:37.510Z,19.27
2022-08-30T06:14:39.411Z,19.30
2022-08-30T06:17:40.816Z,19.15
2022-08-30T06:20:43.702Z,19.20
2022-08-30T06:23:45.143Z,19.12
2022-08-30T06:26:47.258Z,19.27
2022-08-30T06:29:51.894Z,19.29
2022-08-30T06:32:53.335Z,19.12
2022-08-30T06:35:58.562Z,19.14
2022-08-30T06:39:01.346Z,19.27
2022-08-30T06:42:02.817Z,19.55
2022-08-30T06:45:10.320Z,19.60
2022-08-30T06:48:12.752Z,19.83
2022-08-30T06:51:14.621Z,20.08
2022-08-30T06:54:16.918Z,20.13
2022-08-30T06:57:18.394Z,20.27
2022-08-30T07:00:19.883Z,20.26
2022-08-30T07:03:21.907Z,20.44
2022-08-30T07:06:25.104Z,20.57
2022-08-30T07:09:26.560Z,20.74
2022-08-30T07:12:27.964Z,20.88
2022-08-30T07:15:29.378Z,21.22
2022-08-30T07:18:50.592Z,21.41
2022-08-30T07:21:52.037Z,21.72
2022-08-30T07:24:53.447Z,21.94
2022-08-30T07:27:55.901Z,22.11
2022-08-30T07:30:57.443Z,22.23
2022-08-30T07:33:58.894Z,22.35
2022-08-30T07:37:00.316Z,22.46
2022-08-30T07:40:02.944Z,22.66
2022-08-30T07:43:04.431Z,22.81
2022-08-30T07:46:07.834Z,22.98
2022-08-30T07:49:11.311Z,22.93
2022-08-30T07:52:12.980Z,22.70
2022-08-30T07:55:14.560Z,22.63
2022-08-30T07:58:16.231Z,22.56
2022-08-30T08:01:19.273Z,22.33
2022-08-30T08:04:21.601Z,22.34
2022-08-30T08:07:23.076Z,22.51
2022-08-30T08:10:24.500Z,22.52
2022-08-30T08:13:28.026Z,22.62
2022-08-30T08:16:36.035Z,22.62
2022-08-30T08:19:37.438Z,22.77
2022-08-30T08:22:40.146Z,23.00
2022-08-30T08:25:42.127Z,23.16
2022-08-30T08:28:46.336Z,23.29
2022-08-30T08:31:47.976Z,23.22
2022-08-30T08:34:49.421Z,23.22
2022-08-30T08:37:50.866Z,23.28
2022-08-30T08:40:52.206Z,23.47
2022-08-30T08:43:53.790Z,23.33
2022-08-30T08:47:06.144Z,23.32
2022-08-30T08:50:17.433Z,23.37
2022-08-30T08:53:46.085Z,23.44
2022-08-30T08:56:48.575Z,23.56
2022-08-30T08:59:54.109Z,23.85
2022-08-30T09:03:01.521Z,24.14
2022-08-30T09:06:15.648Z,24.38
2022-08-30T09:09:28.676Z,24.21
2022-08-30T09:12:30.163Z,24.13
2022-08-30T09:15:34.323Z,24.19
2022-08-30T09:18:50.093Z,24.34
2022-08-30T09:22:04.068Z,24.44
2022-08-30T09:25:22.164Z,24.53
2022-08-30T09:28:44.565Z,24.73
2022-08-30T09:32:10.061Z,24.87
2022-08-30T09:35:20.725Z,25.07
2022-08-30T09:38:35.862Z,25.33
2022-08-30T09:41:41.171Z,25.56
2022-08-30T09:44:42.586Z,25.83
2022-08-30T09:47:44.420Z,26.16
2022-08-30T09:50:47.690Z,26.44
2022-08-30T09:54:17.470Z,26.36
2022-08-30T09:57:36.881Z,26.29
2022-08-30T10:00:47.533Z,26.29
2022-08-30T10:04:05.623Z,26.15
2022-08-30T10:07:18.241Z,26.28
2022-08-30T10:10:33.877Z,26.87
2022-08-30T10:14:00.125Z,27.29
2022-08-30T10:17:11.043Z,27.30
2022-08-30T10:20:53.005Z,27.52
2022-08-30T10:24:03.878Z,27.65
2022-08-30T10:27:39.371Z,27.58
2022-08-30T10:30:47.508Z,27.71
2022-08-30T10:33:55.795Z,27.75
2022-08-30T10:37:08.371Z,27.84
2022-08-30T10:40:37.149Z,28.09
2022-08-30T10:44:00.622Z,28.39
2022-08-30T10:47:02.612Z,28.63
2022-08-30T10:50:16.347Z,28.55
2022-08-30T10:53:37.077Z,28.62
2022-08-30T10:56:43.093Z,28.58
2022-08-30T11:00:11.959Z,28.49
2022-08-30T11:03:28.956Z,28.47
2022-08-30T11:06:42.786Z,28.57
2022-08-30T11:10:14.841Z,28.84
2022-08-30T11:13:30.321Z,28.91
2022-08-30T11:16:38.629Z,28.92
2022-08-30T11:19:41.282Z,29.05
2022-08-30T11:23:20.527Z,29.02
2022-08-30T11:26:46.884Z,28.81
2022-08-30T11:29:48.577Z,28.57
2022-08-30T11:33:24.945Z,28.48
2022-08-30T11:39:55.063Z,28.48
2022-08-30T11:42:56.722Z,28.60
2022-08-30T11:46:20.017Z,28.77
2022-08-30T11:49:23.427Z,29.02
2022-08-30T11:52:48.919Z,29.32
2022-08-30T11:56:21.106Z,29.39
2022-08-30T11:59:43.085Z,29.32
2022-08-30T12:03:03.667Z,29.51
2022-08-30T12:06:07.580Z,29.84
2022-08-30T12:09:11.938Z,29.84
2022-08-30T12:12:25.262Z,29.66
2022-08-30T12:16:03.035Z,29.81
2022-08-30T12:19:19.874Z,29.80
2022-08-30T12:22:22.864Z,30.13
2022-08-30T12:25:33.274Z,30.20
2022-08-30T12:28:34.709Z,30.38
2022-08-30T12:31:59.194Z,30.36
2022-08-30T12:35:03.888Z,30.04
2022-08-30T12:38:12.054Z,30.21
2022-08-30T12:41:20.972Z,30.37
2022-08-30T12:44:28.093Z,30.73
2022-08-30T12:47:37.246Z,30.88
2022-08-30T12:50:54.530Z,31.02
2022-08-30T12:54:05.268Z,30.58
2022-08-30T12:57:25.613Z,30.77
2022-08-30T13:00:41.148Z,30.92
2022-08-30T13:03:42.685Z,30.88
2022-08-30T13:06:52.639Z,30.84
2022-08-30T13:10:14.354Z,31.14
2022-08-30T13:13:29.128Z,31.04
2022-08-30T13:16:40.341Z,30.95
2022-08-30T13:19:57.690Z,30.83
2022-08-30T13:23:07.679Z,30.92
2022-08-30T13:26:11.493Z,31.05
2022-08-30T13:29:18.858Z,30.78
2022-08-30T13:32:20.754Z,31.14
2022-08-30T13:35:22.537Z,31.44
2022-08-30T13:38:24.049Z,31.41
2022-08-30T13:41:26.156Z,31.43
2022-08-30T13:44:31.746Z,31.59
2022-08-30T13:47:34.775Z,31.56
2022-08-30T13:50:36.744Z,31.40
2022-08-30T13:53:54.629Z,31.43
2022-08-30T13:56:56.748Z,31.26
2022-08-30T13:59:58.826Z,31.36
2022-08-30T14:03:01.570Z,31.49
2022-08-30T14:06:31.579Z,31.53
2022-08-30T14:09:26.898Z,31.88
2022-08-30T14:16:26.850Z,32.05
2022-08-30T14:19:15.390Z,32.02
2022-08-30T14:22:19.793Z,32.07
2022-08-30T14:25:21.440Z,32.28
2022-08-30T14:28:22.874Z,32.10
2022-08-30T14:31:25.744Z,31.85
2022-08-30T14:34:27.572Z,31.71
2022-08-30T14:37:29.028Z,31.81
2022-08-30T14:40:31.737Z,31.77
2022-08-30T14:43:33.476Z,31.74
2022-08-30T14:46:34.939Z,31.50
2022-08-30T14:49:36.848Z,31.65
2022-08-30T14:52:38.481Z,31.79
2022-08-30T14:55:41.075Z,31.88
2022-08-30T14:58:43.100Z,31.84
2022-08-30T15:01:44.610Z,32.02
2022-08-30T15:04:47.071Z,32.18
2022-08-30T15:07:52.804Z,31.89
2022-08-30T15:10:54.298Z,32.03
2022-08-30T15:13:55.726Z,32.29
2022-08-30T15:16:58.805Z,32.41
2022-08-30T15:20:00.222Z,32.54
2022-08-30T15:23:02.154Z,32.34
2022-08-30T15:26:04.186Z,32.48
2022-08-30T15:29:05.836Z,32.51
2022-08-30T15:32:07.920Z,32.31
2022-08-30T15:35:09.544Z,32.14
2022-08-30T15:38:12.490Z,32.36
2022-08-30T15:41:14.821Z,32.55
2022-08-30T15:44:16.300Z,32.52
2022-08-30T15:47:22.266Z,32.19
2022-08-30T15:50:23.852Z,31.99
2022-08-30T15:53:25.252Z,31.61
2022-08-30T15:56:26.690Z,31.45
2022-08-30T15:59:30.410Z,31.44
2022-08-30T16:02:31.977Z,31.43
2022-08-30T16:05:33.437Z,31.60
2022-08-30T16:08:34.840Z,31.75
2022-08-30T16:11:37.548Z,31.84
2022-08-30T16:14:38.964Z,32.05
2022-08-30T16:17:40.867Z,31.89
2022-08-30T16:20:43.393Z,31.78
2022-08-30T16:23:45.255Z,31.58
2022-08-30T16:26:49.882Z,31.56
2022-08-30T16:29:51.328Z,31.51
2022-08-30T16:32:52.796Z,31.40
2022-08-30T16:35:56.969Z,31.28
2022-08-30T16:38:58.903Z,31.17
2022-08-30T16:42:03.140Z,31.08
2022-08-30T16:45:10.247Z,30.92
2022-08-30T16:48:13.413Z,30.87
2022-08-30T16:51:18.111Z,30.78
2022-08-30T16:54:19.763Z,30.59
2022-08-30T16:57:21.367Z,30.35
2022-08-30T17:00:23.974Z,30.30
2022-08-30T17:03:25.714Z,30.17
2022-08-30T17:06:27.605Z,30.20
2022-08-30T17:09:29.173Z,30.20
2022-08-30T17:12:30.933Z,30.17
2022-08-30T17:15:32.561Z,30.12
2022-08-30T17:18:35.640Z,30.08
2022-08-30T17:21:38.851Z,29.99
2022-08-30T17:24:41.032Z,29.91
2022-08-30T17:27:42.469Z,29.79
2022-08-30T17:30:43.939Z,29.63
2022-08-30T17:33:46.781Z,29.52
2022-08-30T17:36:49.622Z,29.37
2022-08-30T17:39:51.368Z,29.22
2022-08-30T17:42:52.909Z,29.13
2022-08-30T17:45:54.321Z,29.11
2022-08-30T17:48:57.568Z,29.02
2022-08-30T17:52:03.939Z,28.92
2022-08-30T17:55:07.538Z,28.84
2022-08-30T17:58:09.022Z,28.71
2022-08-30T18:01:14.647Z,28.61
2022-08-30T18:04:19.686Z,28.56
2022-08-30T18:07:21.928Z,28.44
2022-08-30T18:10:28.440Z,28.39
2022-08-30T18:13:35.919Z,28.33
2022-08-30T18:16:39.148Z,28.23
2022-08-30T18:19:51.264Z,28.22
2022-08-30T18:22:52.715Z,28.15
2022-08-30T18:26:00.367Z,28.07
2022-08-30T18:29:03.986Z,27.93
2022-08-30T18:32:05.582Z,27.84
2022-08-30T18:35:10.490Z,27.83
2022-08-30T18:38:12.576Z,27.75
2022-08-30T18:41:16.253Z,27.68
2022-08-30T18:44:27.683Z,27.53
2022-08-30T18:47:30.112Z,27.39
2022-08-30T18:50:32.844Z,27.38
2022-08-30T18:53:35.310Z,27.29
2022-08-30T18:56:38.944Z,27.23
2022-08-30T18:59:41.801Z,27.17
2022-08-30T19:03:02.262Z,27.14
2022-08-30T19:06:06.068Z,27.12
2022-08-30T19:09:09.446Z,27.09
2022-08-30T19:12:11.400Z,26.97
2022-08-30T19:15:14.169Z,26.86
2022-08-30T19:21:37.316Z,26.76
2022-08-30T19:24:38.795Z,26.74
2022-08-30T19:27:40.543Z,26.64
2022-08-30T19:30:41.982Z,26.26
2022-08-30T19:33:45.071Z,25.90
2022-08-30T19:36:46.666Z,25.72
2022-08-30T19:39:48.581Z,25.57
2022-08-30T19:42:51.369Z,25.24
2022-08-30T19:45:55.320Z,25.00
2022-08-30T19:48:57.318Z,25.05
2022-08-30T19:51:58.872Z,25.23
2022-08-30T19:55:02.649Z,25.34
2022-08-30T19:58:04.586Z,25.28
2022-08-30T20:01:13.050Z,25.07
2022-08-30T20:04:22.024Z,24.98
2022-08-30T20:07:26.213Z,24.93
2022-08-30T20:10:29.593Z,24.93
2022-08-30T20:13:33.902Z,24.92
2022-08-30T20:16:37.544Z,24.87
2022-08-30T20:19:39.726Z,24.89
2022-08-30T20:22:41.160Z,24.87
2022-08-30T20:24:32.483Z,26.76
2022-08-30T20:25:54.380Z,24.78
2022-08-30T20:28:55.882Z,24.81
2022-08-30T20:31:57.315Z,24.87
2022-08-30T20:34:59.057Z,24.87
2022-08-30T20:38:06.174Z,24.94
2022-08-30T20:41:11.008Z,25.04
2022-08-30T20:44:12.462Z,25.03
2022-08-30T20:47:17.359Z,25.09
2022-08-30T20:50:19.118Z,25.15
2022-08-30T20:53:20.554Z,25.19
2022-08-30T20:56:22.878Z,25.23
2022-08-30T20:59:24.322Z,25.30
2022-08-30T21:02:26.060Z,25.30
2022-08-30T21:05:27.528Z,25.32
2022-08-30T21:08:29.013Z,25.41
2022-08-30T21:11:30.576Z,25.40
2022-08-30T21:14:32.127Z,25.40
2022-08-30T21:17:33.549Z,25.38
2022-08-30T21:20:35.634Z,25.38
2022-08-30T21:23:37.296Z,25.34
2022-08-30T21:26:40.701Z,25.36
2022-08-30T21:29:42.304Z,25.33
2022-08-30T21:32:43.840Z,25.31
2022-08-30T21:36:03.772Z,25.27
2022-08-30T21:39:06.501Z,25.18
2022-08-30T21:42:08.945Z,25.17
2022-08-30T21:45:10.617Z,25.19
2022-08-30T21:48:13.538Z,25.16
2022-08-30T21:51:15.113Z,25.27
2022-08-30T21:54:18.028Z,25.10
2022-08-30T21:57:19.488Z,25.04
2022-08-30T22:00:21.136Z,25.00
2022-08-30T22:03:22.599Z,25.01
2022-08-30T22:06:25.233Z,24.99
2022-08-30T22:09:32.224Z,24.99
2022-08-30T22:12:34.440Z,24.98
2022-08-30T22:15:35.859Z,25.01
2022-08-30T22:18:39.741Z,24.98
2022-08-30T22:21:42.360Z,24.93
2022-08-30T22:24:43.782Z,24.95
2022-08-30T22:27:45.874Z,24.91
2022-08-30T22:30:48.451Z,24.88
2022-08-30T22:33:51.584Z,24.81
2022-08-30T22:36:53.148Z,24.80
2022-08-30T22:39:54.634Z,24.83
2022-08-30T22:42:56.054Z,24.76
2022-08-30T22:45:58.062Z,24.79
2022-08-30T22:48:59.643Z,24.78
2022-08-30T22:52:01.089Z,24.66
2022-08-30T22:55:04.134Z,24.63
2022-08-30T22:58:05.556Z,24.60
2022-08-30T23:01:07.348Z,24.61
2022-08-30T23:04:09.539Z,24.56
2022-08-30T23:07:10.973Z,24.53
2022-08-30T23:10:13.790Z,24.54
2022-08-30T23:13:15.290Z,24.49
2022-08-30T23:16:17.342Z,24.40
2022-08-30T23:19:18.806Z,24.39
2022-08-30T23:22:20.204Z,24.35
2022-08-30T23:25:41.402Z,24.43
2022-08-30T23:29:01.804Z,24.35
2022-08-30T23:32:22.549Z,24.32
2022-08-30T23:35:42.305Z,24.23
2022-08-30T23:39:02.137Z,24.21
2022-08-30T23:42:24.274Z,24.08
2022-08-30T23:45:44.136Z,24.08
2022-08-30T23:49:04.362Z,24.05
2022-08-30T23:52:24.094Z,24.08
2022-08-30T23:55:43.857Z,24.09
2022-08-30T23:59:03.810Z,24.07
